Time;durP1;ratioP1;P1;durP2;ratioP2;P2;SDS_P1;SDS_P2;PMS_P1;PMS_P2;Temp;Humidity;BMP_temperature;BMP_pressure;BME280_temperature;BME280_humidity;BME280_pressure;Samples;Min_cycle;Max_cycle;Signal;HPM_P1;HPM_P2
2024/04/14 00:08:58;;;;;;;7.60;1.95;;;10.70;99.90;;;;;;22306099;26;20014;-39
2024/04/14 00:19:00;;;;;;;5.18;1.75;;;11.70;99.90;;;;;;22508983;26;20034;-39
2024/04/14 00:29:02;;;;;;;5.72;2.08;;;10.50;99.90;;;;;;22234580;26;20032;-39
2024/04/14 00:39:04;;;;;;;5.53;2.42;;;10.40;99.90;;;;;;22138156;26;20008;-39
2024/04/14 00:49:10;;;;;;;5.90;2.50;;;10.50;99.90;;;;;;22067422;26;19997;-39
2024/04/14 00:59:13;;;;;;;4.82;2.42;;;10.70;99.90;;;;;;22254425;26;20035;-40
2024/04/14 01:09:17;;;;;;;4.85;2.53;;;10.60;99.90;;;;;;22589672;26;20046;-39
2024/04/14 01:19:19;;;;;;;7.88;3.15;;;10.40;99.90;;;;;;22502546;26;20031;-39
2024/04/14 01:29:24;;;;;;;7.13;2.50;;;10.20;99.90;;;;;;22650551;26;20569;-39
2024/04/14 01:39:26;;;;;;;5.38;3.17;;;10.30;99.90;;;;;;22602915;26;20521;-39
2024/04/14 01:49:27;;;;;;;6.47;2.80;;;10.20;99.90;;;;;;22617334;26;20046;-39
2024/04/14 01:59:29;;;;;;;8.18;3.90;;;10.10;99.90;;;;;;22564760;26;20042;-39
2024/04/14 02:09:31;;;;;;;5.25;3.50;;;10.20;99.90;;;;;;22600022;26;20033;-39
2024/04/14 02:19:33;;;;;;;8.40;4.72;;;10.00;99.90;;;;;;22600223;26;20031;-39
2024/04/14 02:29:35;;;;;;;8.30;4.20;;;9.90;99.90;;;;;;22676180;26;20026;-39
2024/04/14 02:39:37;;;;;;;8.43;4.45;;;9.90;99.90;;;;;;22628718;26;20064;-40
2024/04/14 02:49:38;;;;;;;6.97;4.38;;;10.20;99.90;;;;;;22654294;26;20070;-39
2024/04/14 02:59:40;;;;;;;8.25;4.25;;;10.40;99.90;;;;;;22707020;26;20022;-40
2024/04/14 03:09:45;;;;;;;7.65;4.22;;;10.30;99.90;;;;;;22667784;26;20429;-39
2024/04/14 03:19:51;;;;;;;9.45;4.97;;;10.10;99.90;;;;;;22704882;26;20022;-39
2024/04/14 03:29:53;;;;;;;7.93;4.32;;;10.10;99.90;;;;;;22704441;26;20103;-39
2024/04/14 03:39:55;;;;;;;7.25;4.07;;;10.00;99.90;;;;;;22703475;26;20104;-39
2024/04/14 03:49:57;;;;;;;7.65;4.43;;;10.20;99.90;;;;;;22579871;26;20033;-40
2024/04/14 04:00:00;;;;;;;5.00;3.45;;;10.10;99.90;;;;;;22702630;26;20034;-39
2024/04/14 04:10:02;;;;;;;10.10;4.68;;;10.10;99.90;;;;;;22669812;26;20034;-39
2024/04/14 04:20:05;;;;;;;7.13;4.25;;;10.00;99.90;;;;;;22546945;26;20038;-39
2024/04/14 04:30:07;;;;;;;8.48;4.57;;;9.90;99.90;;;;;;22700032;26;20026;-39
2024/04/14 04:40:09;;;;;;;9.48;4.78;;;9.80;99.90;;;;;;22617610;26;20069;-39
2024/04/14 04:50:11;;;;;;;9.15;4.50;;;9.70;99.90;;;;;;22629568;26;20026;-39
2024/04/14 05:00:13;;;;;;;10.80;4.95;;;10.00;99.90;;;;;;22682038;26;20022;-40
2024/04/14 05:10:15;;;;;;;7.25;4.93;;;10.10;99.90;;;;;;22674544;26;20033;-39
2024/04/14 05:20:17;;;;;;;6.88;4.60;;;10.20;99.90;;;;;;22682676;26;20026;-39
2024/04/14 05:30:19;;;;;;;9.65;4.30;;;10.20;99.90;;;;;;22639593;26;20100;-39
2024/04/14 05:40:22;;;;;;;6.68;4.75;;;10.40;99.90;;;;;;22528732;26;20030;-39
2024/04/14 05:50:23;;;;;;;7.55;4.57;;;10.40;99.90;;;;;;22560067;26;20027;-39
2024/04/14 06:00:25;;;;;;;8.73;4.63;;;10.70;99.90;;;;;;22557843;26;20027;-38
2024/04/14 06:10:27;;;;;;;7.18;4.30;;;11.00;99.90;;;;;;22615978;26;20088;-40
2024/04/14 06:20:30;;;;;;;9.43;4.05;;;11.10;99.90;;;;;;22690939;26;20022;-39
2024/04/14 06:30:32;;;;;;;5.55;3.47;;;11.20;99.90;;;;;;22609100;26;20035;-39
2024/04/14 06:40:34;;;;;;;5.72;3.95;;;11.80;99.90;;;;;;22178656;26;20015;-42
2024/04/14 06:50:36;;;;;;;5.88;3.70;;;13.50;99.90;;;;;;21857643;27;20003;-42
2024/04/14 07:00:38;;;;;;;5.88;3.38;;;15.00;99.90;;;;;;21885079;27;20038;-42
2024/04/14 07:10:40;;;;;;;6.18;3.20;;;16.30;99.90;;;;;;22297839;26;20502;-42
2024/04/14 07:20:42;;;;;;;6.18;3.95;;;17.80;99.90;;;;;;22401120;26;20086;-48
2024/04/14 07:30:45;;;;;;;6.78;3.17;;;19.00;99.90;;;;;;22684922;26;20034;-43
2024/04/14 07:40:47;;;;;;;5.30;2.70;;;20.30;99.90;;;;;;22554760;26;20078;-43
2024/04/14 07:50:50;;;;;;;7.28;3.08;;;21.10;99.90;;;;;;22550003;26;20007;-46
2024/04/14 08:00:52;;;;;;;4.70;2.78;;;21.50;99.90;;;;;;22549369;26;20547;-46
2024/04/14 08:10:54;;;;;;;3.20;2.40;;;22.00;99.90;;;;;;22518992;26;20034;-45
2024/04/14 08:21:00;;;;;;;4.93;2.90;;;22.30;99.90;;;;;;22549505;26;20035;-44
2024/04/14 08:31:02;;;;;;;3.60;2.83;;;22.70;99.90;;;;;;22530735;26;20159;-43
2024/04/14 08:53:24;;;;;;;5.05;2.83;;;22.90;99.90;;;;;;22532992;26;20010;-44
2024/04/14 09:03:26;;;;;;;7.07;2.78;;;23.20;99.90;;;;;;22168975;26;19997;-44
2024/04/14 09:13:31;;;;;;;6.75;3.72;;;23.20;99.90;;;;;;22126830;26;20004;-46
2024/04/14 09:23:33;;;;;;;10.63;4.93;;;23.30;99.90;;;;;;22082598;26;20549;-43
2024/04/14 09:33:34;;;;;;;8.88;4.25;;;23.40;99.90;;;;;;22455642;26;20116;-41
2024/04/14 09:43:38;;;;;;;6.57;3.58;;;23.30;99.90;;;;;;22555456;26;20031;-44
2024/04/14 09:53:41;;;;;;;7.72;4.10;;;23.20;99.90;;;;;;22550375;26;20039;-45
2024/04/14 10:03:46;;;;;;;9.20;4.20;;;23.40;99.90;;;;;;22555676;26;20023;-46
2024/04/14 10:13:52;;;;;;;5.75;3.45;;;23.60;99.90;;;;;;22557804;26;20092;-43
2024/04/14 10:23:57;;;;;;;4.70;3.20;;;23.70;99.90;;;;;;22562344;26;20039;-43
2024/04/14 10:34:10;;;;;;;5.97;3.95;;;24.00;99.90;;;;;;22507502;26;20455;-42
2024/04/14 10:44:22;;;;;;;6.10;3.70;;;23.90;99.90;;;;;;22556605;26;20488;-43
2024/04/14 10:54:24;;;;;;;5.07;3.95;;;23.70;99.90;;;;;;22538353;26;20477;-43
2024/04/14 11:04:27;;;;;;;7.18;5.40;;;23.80;99.90;;;;;;22551605;26;20066;-44
2024/04/14 11:14:30;;;;;;;7.20;5.07;;;23.80;99.90;;;;;;22552592;26;20035;-41
2024/04/14 11:24:35;;;;;;;8.20;5.00;;;23.70;99.90;;;;;;22558757;26;20031;-41
2024/04/14 11:34:40;;;;;;;9.13;5.07;;;23.90;99.90;;;;;;22534008;26;20369;-42
2024/04/14 11:44:42;;;;;;;7.03;4.47;;;24.20;99.90;;;;;;22549093;26;20428;-43
2024/04/14 11:54:43;;;;;;;8.23;5.50;;;24.00;99.90;;;;;;22556764;26;20034;-43
2024/04/14 12:04:46;;;;;;;11.50;4.97;;;24.00;99.90;;;;;;22554370;26;20030;-42
2024/04/14 12:14:47;;;;;;;5.65;4.95;;;24.30;99.90;;;;;;22571777;26;20026;-42
2024/04/14 12:24:49;;;;;;;7.18;5.07;;;24.50;99.90;;;;;;22549940;26;20034;-42
2024/04/14 12:34:51;;;;;;;9.10;6.25;;;24.40;99.90;;;;;;22545118;26;20105;-42
2024/04/14 12:44:53;;;;;;;10.65;7.95;;;24.60;99.90;;;;;;22543940;26;20097;-42
2024/04/14 12:54:55;;;;;;;14.80;10.38;;;24.90;99.90;;;;;;22551777;26;20030;-42
2024/04/14 13:04:57;;;;;;;17.70;12.07;;;25.00;99.90;;;;;;22562655;26;20100;-42
2024/04/14 13:14:58;;;;;;;13.98;11.57;;;24.70;99.90;;;;;;22566203;26;20439;-42
2024/04/14 13:25:00;;;;;;;17.17;15.13;;;24.60;99.90;;;;;;22560475;26;20026;-42
2024/04/14 13:35:02;;;;;;;15.88;13.82;;;24.50;99.90;;;;;;22550803;26;20132;-41
2024/04/14 13:45:04;;;;;;;16.10;13.43;;;24.60;99.90;;;;;;22554119;26;20086;-42
2024/04/14 13:55:07;;;;;;;16.13;13.20;;;24.40;99.90;;;;;;22583259;26;20708;-44
2024/04/14 14:05:09;;;;;;;16.42;12.82;;;24.20;99.90;;;;;;22562073;26;20096;-42
2024/04/14 14:15:10;;;;;;;16.13;13.15;;;24.10;99.90;;;;;;22554082;26;20030;-42
2024/04/14 14:25:12;;;;;;;13.45;11.82;;;23.90;99.90;;;;;;22558871;26;20045;-43
2024/04/14 14:45:34;;;;;;;17.40;15.10;;;24.20;99.90;;;;;;22551447;26;20092;-42
2024/04/14 14:55:39;;;;;;;20.33;15.00;;;23.90;99.90;;;;;;22550598;26;20027;-42
2024/04/14 15:05:41;;;;;;;13.90;12.45;;;23.40;99.90;;;;;;22552952;26;20026;-44
2024/04/14 15:15:57;;;;;;;17.27;14.88;;;22.60;99.90;;;;;;22549277;26;20030;-43
2024/04/14 15:25:58;;;;;;;14.80;12.90;;;22.00;99.90;;;;;;22555317;26;20387;-41
2024/04/14 15:36:00;;;;;;;17.30;13.52;;;21.30;99.90;;;;;;22552056;26;20443;-41
2024/04/14 15:46:03;;;;;;;18.65;15.15;;;20.70;99.90;;;;;;22553485;26;20022;-42
2024/04/14 15:56:06;;;;;;;23.88;17.23;;;20.00;99.90;;;;;;22552345;26;20027;-41
2024/04/14 16:06:11;;;;;;;18.13;15.35;;;19.40;99.90;;;;;;22529811;26;20009;-41
2024/04/14 16:16:14;;;;;;;21.77;18.50;;;19.00;99.90;;;;;;22547488;26;20100;-41
2024/04/14 16:26:17;;;;;;;25.02;19.25;;;18.10;99.90;;;;;;22546412;26;20092;-39
2024/04/14 16:36:19;;;;;;;22.42;17.95;;;17.20;99.90;;;;;;22565830;26;20492;-40
2024/04/14 16:46:22;;;;;;;25.73;17.58;;;16.40;99.90;;;;;;22565128;26;20034;-40
2024/04/14 16:56:23;;;;;;;19.85;15.40;;;16.10;99.90;;;;;;22598836;26;20027;-39
2024/04/14 17:06:25;;;;;;;22.77;15.98;;;15.50;99.90;;;;;;22590340;26;20045;-40
2024/04/14 17:16:27;;;;;;;21.02;15.23;;;15.00;99.90;;;;;;22683209;26;20029;-39
2024/04/14 17:26:29;;;;;;;24.67;16.55;;;14.60;99.90;;;;;;22714095;26;20026;-39
2024/04/14 17:36:33;;;;;;;19.70;15.05;;;14.30;99.90;;;;;;22665798;26;20043;-39
2024/04/14 17:46:36;;;;;;;19.05;14.40;;;14.00;99.90;;;;;;22705072;26;20441;-39
2024/04/14 17:56:38;;;;;;;24.25;14.43;;;13.70;99.90;;;;;;22636721;26;20046;-39
2024/04/14 18:06:41;;;;;;;18.77;13.93;;;13.70;99.90;;;;;;22711430;26;20113;-40
2024/04/14 18:16:42;;;;;;;21.90;15.73;;;13.90;99.90;;;;;;22679500;26;20422;-40
2024/04/14 18:26:44;;;;;;;17.23;14.32;;;13.70;99.90;;;;;;22710504;26;20030;-40
2024/04/14 18:36:46;;;;;;;23.45;17.27;;;13.60;99.90;;;;;;22663600;26;20427;-39
2024/04/14 18:46:48;;;;;;;26.65;19.13;;;13.50;99.90;;;;;;22697997;26;20538;-39
2024/04/14 18:56:51;;;;;;;20.48;16.13;;;13.50;99.90;;;;;;22666025;26;20491;-39
2024/04/14 19:06:53;;;;;;;19.05;13.27;;;13.20;99.90;;;;;;22640332;26;20026;-39
2024/04/14 19:16:58;;;;;;;20.75;12.90;;;13.10;99.90;;;;;;22676494;26;20006;-39
2024/04/14 19:27:01;;;;;;;16.67;9.38;;;12.80;99.90;;;;;;22247742;26;20039;-39
2024/04/14 19:37:04;;;;;;;13.90;6.75;;;12.50;99.90;;;;;;22201816;26;20072;-39
2024/04/14 19:47:07;;;;;;;9.55;6.70;;;12.30;99.90;;;;;;22202417;26;20110;-39
2024/04/14 19:57:11;;;;;;;6.85;4.25;;;12.40;99.90;;;;;;22513633;26;20042;-39
2024/04/14 20:07:15;;;;;;;6.65;2.60;;;12.60;99.90;;;;;;22703131;26;20431;-39
2024/04/14 20:17:18;;;;;;;5.88;2.47;;;12.40;99.90;;;;;;22588658;26;20976;-40
2024/04/14 20:27:20;;;;;;;5.53;4.32;;;12.30;99.90;;;;;;22667178;26;20041;-39
2024/04/14 20:37:22;;;;;;;10.32;5.28;;;12.20;99.90;;;;;;22611545;26;19998;-39
2024/04/14 20:47:24;;;;;;;6.40;4.10;;;12.10;99.90;;;;;;22678216;26;20043;-39
2024/04/14 20:57:26;;;;;;;4.32;2.55;;;12.30;99.90;;;;;;22666284;26;20017;-39
2024/04/14 21:07:27;;;;;;;13.02;6.95;;;12.40;99.90;;;;;;22661805;26;20035;-42
2024/04/14 21:17:29;;;;;;;10.27;6.40;;;12.70;99.90;;;;;;22493204;26;20030;-40
2024/04/14 21:27:31;;;;;;;11.30;6.35;;;12.70;99.90;;;;;;22681520;26;20041;-39
2024/04/14 21:37:34;;;;;;;16.55;11.57;;;12.50;99.90;;;;;;22628312;26;20158;-39
2024/04/14 21:47:36;;;;;;;17.08;11.27;;;13.00;99.90;;;;;;22533648;26;20027;-39
2024/04/14 21:57:37;;;;;;;13.98;9.98;;;13.00;99.90;;;;;;22566857;26;20031;-39
2024/04/14 22:07:39;;;;;;;20.05;9.70;;;12.80;99.90;;;;;;22531035;26;20035;-40
2024/04/14 22:17:41;;;;;;;6.55;5.03;;;13.30;99.90;;;;;;22559039;26;20137;-39
2024/04/14 22:27:46;;;;;;;14.85;6.82;;;13.00;99.90;;;;;;22583678;26;20039;-39
2024/04/14 22:37:48;;;;;;;12.60;8.82;;;12.30;99.90;;;;;;22607882;26;20504;-39
2024/04/14 22:47:50;;;;;;;14.23;10.43;;;11.70;99.90;;;;;;22681233;26;20026;-39
2024/04/14 22:57:51;;;;;;;20.17;11.95;;;11.40;99.90;;;;;;22606137;26;20373;-39
2024/04/14 23:07:53;;;;;;;22.48;14.27;;;11.20;99.90;;;;;;22606994;26;20039;-39
2024/04/14 23:17:56;;;;;;;18.23;11.25;;;11.10;99.90;;;;;;22569314;26;20081;-39
2024/04/14 23:27:58;;;;;;;19.88;11.77;;;11.20;99.90;;;;;;22558981;26;20023;-39
2024/04/14 23:38:04;;;;;;;18.05;12.07;;;11.00;99.90;;;;;;22606715;26;19998;-39
2024/04/14 23:48:06;;;;;;;18.63;11.57;;;11.10;99.90;;;;;;22595387;26;20026;-39
2024/04/14 23:58:08;;;;;;;21.65;15.35;;;11.20;99.90;;;;;;22652938;26;20080;-39
